sensor_id;sensor_type;location;lat;lon;timestamp;temperature;humidity
10441;DHT22;5268;49.346;9.522;2022-10-16T03:21:11;15.90;99.90
10441;DHT22;5268;49.346;9.522;2022-10-16T03:26:13;15.90;99.90
10441;DHT22;5268;49.346;9.522;2022-10-16T03:31:15;15.90;99.90
10441;DHT22;5268;49.346;9.522;2022-10-16T03:36:18;15.80;99.90
10441;DHT22;5268;49.346;9.522;2022-10-16T03:41:20;15.80;99.90
10441;DHT22;5268;49.346;9.522;2022-10-16T03:46:22;15.80;99.90
10441;DHT22;5268;49.346;9.522;2022-10-16T03:51:25;15.80;99.90
10441;DHT22;5268;49.346;9.522;2022-10-16T03:56:28;15.80;99.90
10441;DHT22;5268;49.346;9.522;2022-10-16T04:01:30;15.70;99.90
10441;DHT22;5268;49.346;9.522;2022-10-16T04:06:33;15.70;99.90
10441;DHT22;5268;49.346;9.522;2022-10-16T04:11:35;15.70;99.90
10441;DHT22;5268;49.346;9.522;2022-10-16T04:16:37;15.70;99.90
10441;DHT22;5268;49.346;9.522;2022-10-16T04:21:41;15.70;99.90
10441;DHT22;5268;49.346;9.522;2022-10-16T04:26:43;15.70;99.90
10441;DHT22;5268;49.346;9.522;2022-10-16T04:31:45;15.70;99.90
10441;DHT22;5268;49.346;9.522;2022-10-16T04:36:49;15.70;99.90
10441;DHT22;5268;49.346;9.522;2022-10-16T04:41:51;15.70;99.90
10441;DHT22;5268;49.346;9.522;2022-10-16T04:46:53;15.70;99.90
10441;DHT22;5268;49.346;9.522;2022-10-16T04:51:56;15.70;99.90
10441;DHT22;5268;49.346;9.522;2022-10-16T04:56:58;15.70;99.90
10441;DHT22;5268;49.346;9.522;2022-10-16T05:02:00;15.70;99.90
10441;DHT22;5268;49.346;9.522;2022-10-16T05:07:04;15.60;99.90
10441;DHT22;5268;49.346;9.522;2022-10-16T05:12:06;15.70;99.90
10441;DHT22;5268;49.346;9.522;2022-10-16T05:17:08;15.70;99.90
10441;DHT22;5268;49.346;9.522;2022-10-16T05:22:11;15.70;99.90
10441;DHT22;5268;49.346;9.522;2022-10-16T05:27:14;15.70;99.90
10441;DHT22;5268;49.346;9.522;2022-10-16T05:32:19;15.60;99.90
10441;DHT22;5268;49.346;9.522;2022-10-16T05:37:22;15.60;99.90
10441;DHT22;5268;49.346;9.522;2022-10-16T05:42:24;15.70;99.90
10441;DHT22;5268;49.346;9.522;2022-10-16T05:47:26;15.70;99.90
10441;DHT22;5268;49.346;9.522;2022-10-16T05:52:30;15.70;99.90
10441;DHT22;5268;49.346;9.522;2022-10-16T05:57:32;15.70;99.90
10441;DHT22;5268;49.346;9.522;2022-10-16T06:02:34;15.70;99.90
10441;DHT22;5268;49.346;9.522;2022-10-16T06:07:37;15.70;99.90
10441;DHT22;5268;49.346;9.522;2022-10-16T06:12:39;15.70;99.90
10441;DHT22;5268;49.346;9.522;2022-10-16T06:17:41;15.70;99.90
10441;DHT22;5268;49.346;9.522;2022-10-16T06:22:44;15.70;99.90
10441;DHT22;5268;49.346;9.522;2022-10-16T06:27:46;15.70;99.90
10441;DHT22;5268;49.346;9.522;2022-10-16T06:32:48;15.70;99.90
10441;DHT22;5268;49.346;9.522;2022-10-16T06:37:52;15.70;99.90
10441;DHT22;5268;49.346;9.522;2022-10-16T06:42:55;15.60;99.90
10441;DHT22;5268;49.346;9.522;2022-10-16T06:47:57;15.70;99.90
10441;DHT22;5268;49.346;9.522;2022-10-16T06:53:00;15.70;99.90
10441;DHT22;5268;49.346;9.522;2022-10-16T06:58:02;15.70;99.90
10441;DHT22;5268;49.346;9.522;2022-10-16T07:03:04;15.80;99.90
10441;DHT22;5268;49.346;9.522;2022-10-16T07:08:08;15.90;99.90
10441;DHT22;5268;49.346;9.522;2022-10-16T07:13:10;16.00;99.90
10441;DHT22;5268;49.346;9.522;2022-10-16T07:18:14;16.00;99.90
10441;DHT22;5268;49.346;9.522;2022-10-16T07:23:17;16.00;99.90
10441;DHT22;5268;49.346;9.522;2022-10-16T07:28:19;16.10;99.90
10441;DHT22;5268;49.346;9.522;2022-10-16T07:33:21;16.10;99.90
10441;DHT22;5268;49.346;9.522;2022-10-16T07:38:25;16.10;99.90
10441;DHT22;5268;49.346;9.522;2022-10-16T07:43:27;16.20;99.90
10441;DHT22;5268;49.346;9.522;2022-10-16T07:48:31;16.30;99.90
10441;DHT22;5268;49.346;9.522;2022-10-16T07:53:35;16.30;99.90
10441;DHT22;5268;49.346;9.522;2022-10-16T07:58:37;16.50;99.90
10441;DHT22;5268;49.346;9.522;2022-10-16T08:03:42;17.00;99.90
10441;DHT22;5268;49.346;9.522;2022-10-16T08:08:45;17.40;99.90
10441;DHT22;5268;49.346;9.522;2022-10-16T08:13:48;17.60;99.90
10441;DHT22;5268;49.346;9.522;2022-10-16T08:18:50;17.60;99.90
10441;DHT22;5268;49.346;9.522;2022-10-16T08:23:54;17.50;99.90
10441;DHT22;5268;49.346;9.522;2022-10-16T08:28:56;17.50;99.90
10441;DHT22;5268;49.346;9.522;2022-10-16T08:33:58;17.50;99.90
10441;DHT22;5268;49.346;9.522;2022-10-16T08:39:02;17.50;99.90
10441;DHT22;5268;49.346;9.522;2022-10-16T08:44:24;17.50;99.90
10441;DHT22;5268;49.346;9.522;2022-10-16T08:49:28;17.60;99.90
10441;DHT22;5268;49.346;9.522;2022-10-16T08:54:36;17.70;99.90
10441;DHT22;5268;49.346;9.522;2022-10-16T08:59:41;17.90;99.90
10441;DHT22;5268;49.346;9.522;2022-10-16T09:04:57;18.00;99.90
10441;DHT22;5268;49.346;9.522;2022-10-16T09:10:13;18.20;99.90
10441;DHT22;5268;49.346;9.522;2022-10-16T09:15:26;18.50;99.90
10441;DHT22;5268;49.346;9.522;2022-10-16T09:20:34;18.70;99.90
10441;DHT22;5268;49.346;9.522;2022-10-16T09:25:39;18.90;99.90
10441;DHT22;5268;49.346;9.522;2022-10-16T09:30:42;19.10;99.90
10441;DHT22;5268;49.346;9.522;2022-10-16T09:35:47;19.10;99.90
10441;DHT22;5268;49.346;9.522;2022-10-16T09:40:52;19.20;99.90
10441;DHT22;5268;49.346;9.522;2022-10-16T09:45:56;19.20;99.90
10441;DHT22;5268;49.346;9.522;2022-10-16T09:51:00;19.20;99.90
10441;DHT22;5268;49.346;9.522;2022-10-16T09:56:04;19.30;99.90
10441;DHT22;5268;49.346;9.522;2022-10-16T10:01:13;19.40;99.90
10441;DHT22;5268;49.346;9.522;2022-10-16T10:06:27;19.50;99.90
10441;DHT22;5268;49.346;9.522;2022-10-16T10:11:55;19.60;99.90
10441;DHT22;5268;49.346;9.522;2022-10-16T10:17:16;19.70;99.90
10441;DHT22;5268;49.346;9.522;2022-10-16T10:22:24;19.90;99.90
10441;DHT22;5268;49.346;9.522;2022-10-16T10:27:34;20.00;99.90
10441;DHT22;5268;49.346;9.522;2022-10-16T10:32:45;20.20;99.90
10441;DHT22;5268;49.346;9.522;2022-10-16T10:37:59;20.40;99.90
10441;DHT22;5268;49.346;9.522;2022-10-16T10:43:11;20.70;99.90
10441;DHT22;5268;49.346;9.522;2022-10-16T10:48:22;21.00;99.90
10441;DHT22;5268;49.346;9.522;2022-10-16T10:59:07;21.50;99.90
10441;DHT22;5268;49.346;9.522;2022-10-16T11:04:53;21.60;99.90
10441;DHT22;5268;49.346;9.522;2022-10-16T11:10:03;21.70;99.90
10441;DHT22;5268;49.346;9.522;2022-10-16T11:15:12;22.00;99.90
10441;DHT22;5268;49.346;9.522;2022-10-16T11:20:19;22.10;99.90
10441;DHT22;5268;49.346;9.522;2022-10-16T11:25:24;22.30;99.90
10441;DHT22;5268;49.346;9.522;2022-10-16T11:30:30;22.50;99.90
10441;DHT22;5268;49.346;9.522;2022-10-16T11:35:39;22.60;99.90
10441;DHT22;5268;49.346;9.522;2022-10-16T11:40:46;22.40;99.90
10441;DHT22;5268;49.346;9.522;2022-10-16T11:45:52;22.60;99.90
10441;DHT22;5268;49.346;9.522;2022-10-16T11:50:58;22.80;99.90
10441;DHT22;5268;49.346;9.522;2022-10-16T11:56:04;23.00;99.90
10441;DHT22;5268;49.346;9.522;2022-10-16T12:01:17;23.20;99.90
10441;DHT22;5268;49.346;9.522;2022-10-16T12:06:31;23.30;99.90
10441;DHT22;5268;49.346;9.522;2022-10-16T12:11:38;23.40;99.90
10441;DHT22;5268;49.346;9.522;2022-10-16T12:16:52;23.50;99.90
10441;DHT22;5268;49.346;9.522;2022-10-16T12:21:56;23.50;99.90
10441;DHT22;5268;49.346;9.522;2022-10-16T12:26:59;23.60;99.90
10441;DHT22;5268;49.346;9.522;2022-10-16T12:32:05;23.50;99.90
10441;DHT22;5268;49.346;9.522;2022-10-16T12:37:14;23.40;99.90
10441;DHT22;5268;49.346;9.522;2022-10-16T12:42:31;23.40;99.90
10441;DHT22;5268;49.346;9.522;2022-10-16T12:47:48;23.40;99.90
10441;DHT22;5268;49.346;9.522;2022-10-16T12:52:51;23.30;99.90
10441;DHT22;5268;49.346;9.522;2022-10-16T12:58:09;23.30;99.90
10441;DHT22;5268;49.346;9.522;2022-10-16T13:03:52;23.30;99.90
10441;DHT22;5268;49.346;9.522;2022-10-16T13:09:10;23.20;99.90
10441;DHT22;5268;49.346;9.522;2022-10-16T13:14:46;23.10;99.90
10441;DHT22;5268;49.346;9.522;2022-10-16T13:19:56;22.90;99.90
10441;DHT22;5268;49.346;9.522;2022-10-16T13:25:15;23.00;99.90
10441;DHT22;5268;49.346;9.522;2022-10-16T13:30:20;23.00;99.90
10441;DHT22;5268;49.346;9.522;2022-10-16T13:35:25;22.90;99.90
10441;DHT22;5268;49.346;9.522;2022-10-16T13:40:27;22.80;99.90
10441;DHT22;5268;49.346;9.522;2022-10-16T13:45:29;22.50;99.90
10441;DHT22;5268;49.346;9.522;2022-10-16T13:50:33;22.50;99.90
10441;DHT22;5268;49.346;9.522;2022-10-16T13:55:35;22.30;99.90
10441;DHT22;5268;49.346;9.522;2022-10-16T14:00:37;22.30;99.90
10441;DHT22;5268;49.346;9.522;2022-10-16T14:05:44;22.20;99.90
10441;DHT22;5268;49.346;9.522;2022-10-16T14:10:49;22.10;99.90
10441;DHT22;5268;49.346;9.522;2022-10-16T14:15:52;22.10;99.90
10441;DHT22;5268;49.346;9.522;2022-10-16T14:21:03;22.10;99.90
10441;DHT22;5268;49.346;9.522;2022-10-16T14:26:11;22.00;99.90
10441;DHT22;5268;49.346;9.522;2022-10-16T14:31:25;22.00;99.90
10441;DHT22;5268;49.346;9.522;2022-10-16T14:36:29;22.00;99.90
10441;DHT22;5268;49.346;9.522;2022-10-16T14:41:33;22.00;99.90
10441;DHT22;5268;49.346;9.522;2022-10-16T14:46:43;21.90;99.90
10441;DHT22;5268;49.346;9.522;2022-10-16T14:51:47;21.90;99.90
10441;DHT22;5268;49.346;9.522;2022-10-16T14:56:51;21.90;99.90
10441;DHT22;5268;49.346;9.522;2022-10-16T15:01:53;21.80;99.90
10441;DHT22;5268;49.346;9.522;2022-10-16T15:06:57;21.80;99.90
10441;DHT22;5268;49.346;9.522;2022-10-16T15:11:59;21.70;99.90
10441;DHT22;5268;49.346;9.522;2022-10-16T15:17:01;21.60;99.90
10441;DHT22;5268;49.346;9.522;2022-10-16T15:22:04;21.50;99.90
10441;DHT22;5268;49.346;9.522;2022-10-16T15:27:06;21.40;99.90
10441;DHT22;5268;49.346;9.522;2022-10-16T15:32:09;21.20;99.90
10441;DHT22;5268;49.346;9.522;2022-10-16T15:37:12;21.10;99.90
10441;DHT22;5268;49.346;9.522;2022-10-16T15:42:14;21.00;99.90
10441;DHT22;5268;49.346;9.522;2022-10-16T15:47:16;21.00;99.90
10441;DHT22;5268;49.346;9.522;2022-10-16T15:52:19;20.80;99.90
10441;DHT22;5268;49.346;9.522;2022-10-16T15:57:21;20.70;99.90
10441;DHT22;5268;49.346;9.522;2022-10-16T16:02:24;20.60;99.90
10441;DHT22;5268;49.346;9.522;2022-10-16T16:07:27;20.50;99.90
10441;DHT22;5268;49.346;9.522;2022-10-16T16:12:29;20.50;99.90
10441;DHT22;5268;49.346;9.522;2022-10-16T16:17:31;20.50;99.90
10441;DHT22;5268;49.346;9.522;2022-10-16T16:22:35;20.40;99.90
10441;DHT22;5268;49.346;9.522;2022-10-16T16:27:37;20.40;99.90
10441;DHT22;5268;49.346;9.522;2022-10-16T16:32:39;20.30;99.90
10441;DHT22;5268;49.346;9.522;2022-10-16T16:37:42;20.20;99.90
10441;DHT22;5268;49.346;9.522;2022-10-16T16:42:46;20.10;99.90
10441;DHT22;5268;49.346;9.522;2022-10-16T16:47:49;20.00;99.90
10441;DHT22;5268;49.346;9.522;2022-10-16T16:52:52;19.90;99.90
10441;DHT22;5268;49.346;9.522;2022-10-16T16:57:54;19.80;99.90
10441;DHT22;5268;49.346;9.522;2022-10-16T17:02:57;19.70;99.90
10441;DHT22;5268;49.346;9.522;2022-10-16T17:08:00;19.60;99.90
10441;DHT22;5268;49.346;9.522;2022-10-16T17:13:02;19.50;99.90
10441;DHT22;5268;49.346;9.522;2022-10-16T17:18:04;19.40;99.90
10441;DHT22;5268;49.346;9.522;2022-10-16T17:23:08;19.30;99.90
10441;DHT22;5268;49.346;9.522;2022-10-16T17:28:10;19.20;99.90
10441;DHT22;5268;49.346;9.522;2022-10-16T17:33:13;19.00;99.90
10441;DHT22;5268;49.346;9.522;2022-10-16T17:38:16;18.90;99.90
10441;DHT22;5268;49.346;9.522;2022-10-16T17:43:18;18.80;99.90
10441;DHT22;5268;49.346;9.522;2022-10-16T17:48:20;18.60;99.90
10441;DHT22;5268;49.346;9.522;2022-10-16T17:53:25;18.50;99.90
10441;DHT22;5268;49.346;9.522;2022-10-16T17:58:27;18.40;99.90
10441;DHT22;5268;49.346;9.522;2022-10-16T18:03:29;18.30;99.90
10441;DHT22;5268;49.346;9.522;2022-10-16T18:08:32;18.20;99.90
10441;DHT22;5268;49.346;9.522;2022-10-16T18:13:37;18.10;99.90
10441;DHT22;5268;49.346;9.522;2022-10-16T18:18:41;17.90;99.90
10441;DHT22;5268;49.346;9.522;2022-10-16T18:23:46;17.90;99.90
10441;DHT22;5268;49.346;9.522;2022-10-16T18:28:51;17.80;99.90
10441;DHT22;5268;49.346;9.522;2022-10-16T18:33:53;17.70;99.90
10441;DHT22;5268;49.346;9.522;2022-10-16T18:38:58;17.60;99.90
10441;DHT22;5268;49.346;9.522;2022-10-16T18:44:00;17.50;99.90
10441;DHT22;5268;49.346;9.522;2022-10-16T18:49:02;17.40;99.90
10441;DHT22;5268;49.346;9.522;2022-10-16T18:54:08;17.30;99.90
10441;DHT22;5268;49.346;9.522;2022-10-16T18:59:10;17.20;99.90
10441;DHT22;5268;49.346;9.522;2022-10-16T19:04:14;17.10;99.90
10441;DHT22;5268;49.346;9.522;2022-10-16T19:09:19;17.00;99.90
10441;DHT22;5268;49.346;9.522;2022-10-16T19:14:21;17.00;99.90
10441;DHT22;5268;49.346;9.522;2022-10-16T19:19:24;16.90;99.90
10441;DHT22;5268;49.346;9.522;2022-10-16T19:24:28;16.80;99.90
10441;DHT22;5268;49.346;9.522;2022-10-16T19:29:30;16.70;99.90
10441;DHT22;5268;49.346;9.522;2022-10-16T19:34:32;16.60;99.90
10441;DHT22;5268;49.346;9.522;2022-10-16T19:39:35;16.50;99.90
10441;DHT22;5268;49.346;9.522;2022-10-16T19:44:37;16.40;99.90
10441;DHT22;5268;49.346;9.522;2022-10-16T19:49:39;16.40;99.90
10441;DHT22;5268;49.346;9.522;2022-10-16T19:54:42;16.30;99.90
10441;DHT22;5268;49.346;9.522;2022-10-16T19:59:45;16.20;99.90
10441;DHT22;5268;49.346;9.522;2022-10-16T20:04:46;16.20;99.90
10441;DHT22;5268;49.346;9.522;2022-10-16T20:09:50;16.10;99.90
10441;DHT22;5268;49.346;9.522;2022-10-16T20:14:52;16.10;99.90
10441;DHT22;5268;49.346;9.522;2022-10-16T20:19:54;16.00;99.90
10441;DHT22;5268;49.346;9.522;2022-10-16T20:24:57;15.90;99.90
10441;DHT22;5268;49.346;9.522;2022-10-16T20:29:59;15.90;99.90
10441;DHT22;5268;49.346;9.522;2022-10-16T20:35:01;15.80;99.90
10441;DHT22;5268;49.346;9.522;2022-10-16T20:40:06;15.80;99.90
10441;DHT22;5268;49.346;9.522;2022-10-16T20:45:08;15.70;99.90
10441;DHT22;5268;49.346;9.522;2022-10-16T20:50:11;15.70;99.90
10441;DHT22;5268;49.346;9.522;2022-10-16T20:55:15;15.60;99.90
10441;DHT22;5268;49.346;9.522;2022-10-16T21:00:17;15.50;99.90
10441;DHT22;5268;49.346;9.522;2022-10-16T21:05:19;15.40;99.90
10441;DHT22;5268;49.346;9.522;2022-10-16T21:10:23;15.40;99.90
10441;DHT22;5268;49.346;9.522;2022-10-16T21:15:25;15.30;99.90
10441;DHT22;5268;49.346;9.522;2022-10-16T21:20:27;15.30;99.90
10441;DHT22;5268;49.346;9.522;2022-10-16T21:25:31;15.20;99.90
